createdAt,value
2018-12-07T00:01:52.939Z,7.63
2018-12-07T00:04:26.844Z,7.40
2018-12-07T00:07:00.751Z,6.93
2018-12-07T00:09:34.533Z,7.37
2018-12-07T00:12:08.667Z,7.50
2018-12-07T00:14:42.788Z,7.63
2018-12-07T00:17:16.893Z,7.50
2018-12-07T00:19:52.220Z,7.03
2018-12-07T00:22:26.150Z,7.40
2018-12-07T00:24:59.946Z,7.20
2018-12-07T00:27:33.955Z,7.13
2018-12-07T00:30:08.171Z,7.70
2018-12-07T00:32:41.976Z,6.73
2018-12-07T00:35:16.292Z,8.43
2018-12-07T00:37:50.201Z,7.07
2018-12-07T00:40:24.009Z,6.97
2018-12-07T00:42:58.117Z,7.00
2018-12-07T00:45:32.030Z,7.00
2018-12-07T00:48:06.252Z,7.10
2018-12-07T00:50:40.044Z,7.73
2018-12-07T00:53:14.122Z,6.97
2018-12-07T00:55:48.115Z,7.20
2018-12-07T00:58:22.177Z,7.33
2018-12-07T01:00:56.044Z,8.13
2018-12-07T01:03:30.059Z,6.77
2018-12-07T01:06:04.206Z,6.87
2018-12-07T01:08:38.214Z,9.00
2018-12-07T01:11:12.139Z,6.80
2018-12-07T01:13:46.197Z,6.60
2018-12-07T01:16:20.189Z,6.60
2018-12-07T01:18:54.459Z,6.63
2018-12-07T01:21:28.570Z,6.10
2018-12-07T01:24:02.479Z,6.27
2018-12-07T01:26:36.387Z,6.30
2018-12-07T01:29:10.058Z,5.90
2018-12-07T01:31:43.751Z,5.93
2018-12-07T01:34:17.464Z,6.00
2018-12-07T01:36:51.188Z,5.70
2018-12-07T01:39:25.154Z,5.23
2018-12-07T01:41:59.220Z,5.20
2018-12-07T01:44:33.025Z,5.60
2018-12-07T01:47:06.928Z,5.30
2018-12-07T01:49:40.733Z,4.90
2018-12-07T01:52:14.670Z,5.00
2018-12-07T01:54:48.651Z,4.87
2018-12-07T01:57:23.138Z,5.30
2018-12-07T01:59:57.183Z,4.77
2018-12-07T02:02:31.293Z,4.80
2018-12-07T02:05:05.556Z,5.00
2018-12-07T02:07:39.620Z,4.53
2018-12-07T02:10:13.528Z,4.67
2018-12-07T02:12:47.507Z,4.50
2018-12-07T02:15:21.650Z,4.50
2018-12-07T02:17:55.762Z,4.60
2018-12-07T02:20:29.873Z,4.33
2018-12-07T02:23:03.885Z,4.27
2018-12-07T02:25:37.792Z,4.10
2018-12-07T02:28:11.801Z,4.10
2018-12-07T02:30:45.710Z,3.90
2018-12-07T02:33:19.821Z,3.97
2018-12-07T02:35:53.569Z,3.83
2018-12-07T02:38:27.636Z,3.77
2018-12-07T02:41:01.587Z,3.70
2018-12-07T02:43:35.654Z,4.20
2018-12-07T02:46:09.505Z,3.47
2018-12-07T02:48:43.620Z,3.13
2018-12-07T02:51:17.587Z,3.10
2018-12-07T02:53:51.597Z,2.90
2018-12-07T02:56:25.295Z,2.90
2018-12-07T02:58:59.412Z,3.37
2018-12-07T03:01:33.417Z,2.53
2018-12-07T03:04:07.426Z,2.67
2018-12-07T03:06:41.335Z,2.57
2018-12-07T03:09:15.346Z,2.63
2018-12-07T03:11:49.157Z,3.03
2018-12-07T03:14:23.157Z,2.40
2018-12-07T03:16:57.082Z,2.50
2018-12-07T03:19:30.778Z,2.20
2018-12-07T03:22:04.674Z,3.00
2018-12-07T03:24:38.686Z,2.43
2018-12-07T03:27:12.760Z,2.13
2018-12-07T03:29:46.910Z,2.20
2018-12-07T03:32:20.727Z,2.40
2018-12-07T03:34:54.723Z,2.10
2018-12-07T03:37:28.737Z,2.20
2018-12-07T03:40:02.562Z,2.13
2018-12-07T03:42:36.651Z,2.20
2018-12-07T03:45:10.614Z,2.63
2018-12-07T03:47:44.670Z,2.37
2018-12-07T03:50:18.577Z,2.10
2018-12-07T03:52:52.588Z,2.30
2018-12-07T03:55:26.396Z,1.80
2018-12-07T03:58:00.197Z,1.93
2018-12-07T04:00:34.059Z,1.90
2018-12-07T04:03:08.074Z,1.87
2018-12-07T04:05:42.226Z,2.60
2018-12-07T04:08:16.238Z,1.93
2018-12-07T04:10:50.145Z,1.90
2018-12-07T04:13:23.955Z,1.73
2018-12-07T04:15:57.855Z,2.10
2018-12-07T04:18:31.622Z,2.23
2018-12-07T04:21:05.773Z,2.33
2018-12-07T04:23:39.524Z,1.97
2018-12-07T04:26:13.599Z,1.80
2018-12-07T04:28:47.459Z,2.17
2018-12-07T04:31:21.609Z,1.50
2018-12-07T04:33:55.516Z,1.87
2018-12-07T04:36:29.526Z,1.87
2018-12-07T04:39:04.663Z,2.00
2018-12-07T04:41:38.671Z,1.60
2018-12-07T04:44:13.477Z,1.70
2018-12-07T04:46:47.510Z,2.27
2018-12-07T04:49:21.381Z,2.07
2018-12-07T04:51:55.536Z,2.17
2018-12-07T04:54:29.338Z,1.40
2018-12-07T04:57:03.449Z,2.20
2018-12-07T04:59:37.258Z,1.80
2018-12-07T05:02:11.466Z,1.20
2018-12-07T05:04:45.476Z,1.43
2018-12-07T05:07:19.485Z,1.17
2018-12-07T05:09:53.496Z,1.23
2018-12-07T05:12:27.404Z,1.77
2018-12-07T05:15:01.110Z,1.27
2018-12-07T05:17:35.325Z,1.00
2018-12-07T05:20:09.438Z,1.00
2018-12-07T05:22:43.410Z,0.90
2018-12-07T05:25:17.759Z,0.80
2018-12-07T05:27:51.668Z,0.90
2018-12-07T05:30:27.263Z,0.93
2018-12-07T05:33:01.197Z,1.20
2018-12-07T05:35:35.248Z,1.60
2018-12-07T05:38:27.061Z,0.97
2018-12-07T05:41:01.666Z,1.03
2018-12-07T05:43:37.587Z,1.13
2018-12-07T05:46:11.664Z,1.67
2018-12-07T05:48:45.514Z,1.07
2018-12-07T05:51:19.603Z,0.90
2018-12-07T05:53:53.678Z,1.13
2018-12-07T05:56:27.586Z,0.80
2018-12-07T05:59:01.493Z,0.97
2018-12-07T06:01:35.566Z,0.90
2018-12-07T06:04:09.557Z,1.30
2018-12-07T06:06:43.628Z,0.80
2018-12-07T06:09:17.532Z,1.23
2018-12-07T06:11:51.542Z,1.17
2018-12-07T06:14:25.347Z,1.33
2018-12-07T06:16:59.160Z,0.90
2018-12-07T06:19:33.126Z,0.97
2018-12-07T06:22:07.179Z,1.10
2018-12-07T06:24:41.247Z,1.60
2018-12-07T06:27:15.292Z,1.27
2018-12-07T06:29:49.303Z,1.00
2018-12-07T06:32:23.312Z,1.90
2018-12-07T06:34:57.362Z,2.40
2018-12-07T06:37:31.538Z,1.43
2018-12-07T06:40:05.959Z,1.33
2018-12-07T06:42:39.863Z,1.00
2018-12-07T06:45:13.550Z,1.03
2018-12-07T06:47:47.387Z,1.17
2018-12-07T06:50:21.381Z,0.90
2018-12-07T06:52:55.288Z,0.90
2018-12-07T06:55:29.361Z,1.00
2018-12-07T06:58:03.409Z,1.20
2018-12-07T07:00:37.522Z,0.90
2018-12-07T07:03:11.789Z,1.20
2018-12-07T07:05:46.801Z,1.30
2018-12-07T07:08:20.745Z,1.33
2018-12-07T07:10:54.735Z,1.30
2018-12-07T07:13:29.008Z,2.53
2018-12-07T07:16:02.912Z,1.20
2018-12-07T07:18:37.026Z,1.23
2018-12-07T07:21:10.931Z,1.10
2018-12-07T07:23:44.842Z,1.17
2018-12-07T07:26:18.647Z,1.10
2018-12-07T07:28:52.757Z,1.77
2018-12-07T07:31:26.513Z,1.10
2018-12-07T07:34:00.469Z,2.60
2018-12-07T07:36:35.517Z,1.57
2018-12-07T07:39:09.410Z,1.03
2018-12-07T07:41:43.225Z,0.93
2018-12-07T07:44:20.297Z,0.93
2018-12-07T07:46:54.252Z,0.87
2018-12-07T07:49:28.316Z,1.37
2018-12-07T07:52:02.184Z,0.97
2018-12-07T07:54:36.234Z,3.70
2018-12-07T07:57:09.990Z,2.17
2018-12-07T07:59:44.047Z,1.13
2018-12-07T08:02:17.822Z,0.77
2018-12-07T08:04:51.863Z,0.90
2018-12-07T08:07:25.627Z,0.90
2018-12-07T08:10:00.670Z,1.03
2018-12-07T08:12:34.658Z,1.30
2018-12-07T08:15:08.926Z,1.20
2018-12-07T08:17:49.795Z,0.80
2018-12-07T08:20:24.011Z,1.27
2018-12-07T08:22:57.818Z,1.10
2018-12-07T08:25:31.825Z,1.17
2018-12-07T08:28:05.601Z,1.13
2018-12-07T08:30:39.742Z,1.60
2018-12-07T08:33:13.650Z,0.90
2018-12-07T08:35:47.840Z,0.90
2018-12-07T08:38:21.840Z,1.00
2018-12-07T08:40:55.987Z,0.90
2018-12-07T08:43:29.996Z,0.90
2018-12-07T08:46:04.260Z,1.10
2018-12-07T08:48:38.220Z,3.33
2018-12-07T08:51:12.266Z,1.63
2018-12-07T08:53:46.138Z,0.90
2018-12-07T08:56:20.045Z,1.20
2018-12-07T08:58:53.944Z,1.13
2018-12-07T09:01:27.859Z,1.30
2018-12-07T09:04:05.761Z,0.90
2018-12-07T09:06:39.669Z,1.20
2018-12-07T09:09:13.780Z,1.00
2018-12-07T09:11:47.892Z,1.43
2018-12-07T09:14:21.800Z,1.27
2018-12-07T09:16:55.712Z,1.20
2018-12-07T09:19:35.656Z,1.40
2018-12-07T09:22:09.667Z,1.70
2018-12-07T09:24:43.471Z,1.70
2018-12-07T09:27:17.482Z,1.73
2018-12-07T09:29:51.390Z,2.13
2018-12-07T09:32:25.143Z,1.87
2018-12-07T09:35:00.505Z,2.13
2018-12-07T09:37:36.592Z,1.70
2018-12-07T09:40:11.632Z,2.17
2018-12-07T09:42:45.635Z,2.07
2018-12-07T09:45:19.543Z,2.37
2018-12-07T09:47:53.552Z,3.17
2018-12-07T09:50:28.483Z,3.37
2018-12-07T09:53:02.812Z,2.83
2018-12-07T09:55:37.017Z,3.23
2018-12-07T09:58:10.821Z,2.03
2018-12-07T10:00:48.008Z,2.10
2018-12-07T10:03:21.876Z,1.73
2018-12-07T10:05:56.129Z,1.80
2018-12-07T10:08:30.347Z,2.67
2018-12-07T10:11:04.455Z,1.73
2018-12-07T10:13:38.259Z,1.60
2018-12-07T10:16:12.168Z,2.67
2018-12-07T10:18:48.918Z,3.77
2018-12-07T10:21:23.054Z,3.73
2018-12-07T10:23:56.924Z,1.73
2018-12-07T10:26:31.072Z,2.37
2018-12-07T10:29:07.028Z,2.03
2018-12-07T10:31:41.039Z,2.20
2018-12-07T10:34:15.253Z,3.87
2018-12-07T10:36:53.461Z,1.77
2018-12-07T10:39:27.167Z,1.90
2018-12-07T10:42:01.276Z,1.60
2018-12-07T10:44:36.309Z,1.60
2018-12-07T10:47:10.319Z,2.60
2018-12-07T10:49:44.227Z,2.33
2018-12-07T10:52:38.806Z,2.13
2018-12-07T10:55:12.830Z,1.93
2018-12-07T10:57:46.838Z,2.30
2018-12-07T11:03:34.488Z,1.57
2018-12-07T11:06:10.545Z,2.80
2018-12-07T11:11:48.158Z,3.40
2018-12-07T11:17:35.604Z,2.10
2018-12-07T11:20:20.081Z,1.93
2018-12-07T11:23:11.693Z,1.83
2018-12-07T11:25:51.525Z,1.97
2018-12-07T11:28:31.168Z,1.97
2018-12-07T11:31:10.611Z,1.60
2018-12-07T11:33:46.662Z,2.43
2018-12-07T11:36:26.715Z,2.20
2018-12-07T11:39:00.725Z,2.77
2018-12-07T11:41:34.635Z,1.20
2018-12-07T11:44:08.495Z,1.90
2018-12-07T11:46:42.732Z,0.90
2018-12-07T11:49:16.665Z,2.77
2018-12-07T11:51:50.774Z,1.33
2018-12-07T11:54:24.684Z,2.40
2018-12-07T11:56:58.589Z,1.83
2018-12-07T11:59:32.495Z,1.67
2018-12-07T12:02:06.914Z,1.40
2018-12-07T12:04:40.826Z,1.40
2018-12-07T12:07:15.241Z,1.53
2018-12-07T12:09:49.164Z,1.27
2018-12-07T12:12:23.261Z,1.87
2018-12-07T12:14:57.169Z,1.93
2018-12-07T12:17:32.895Z,1.83
2018-12-07T12:20:08.085Z,3.20
2018-12-07T12:22:42.118Z,1.30
2018-12-07T12:25:28.362Z,1.57
2018-12-07T12:28:02.391Z,1.90
2018-12-07T12:30:36.619Z,2.57
2018-12-07T12:33:10.562Z,3.60
2018-12-07T12:35:50.562Z,2.53
2018-12-07T12:38:24.658Z,2.30
2018-12-07T12:41:17.165Z,2.67
2018-12-07T12:43:51.315Z,2.40
2018-12-07T12:46:31.413Z,2.27
2018-12-07T12:49:05.360Z,3.23
2018-12-07T12:51:44.504Z,3.80
2018-12-07T12:54:27.629Z,1.70
2018-12-07T12:57:01.638Z,3.53
2018-12-07T12:59:35.545Z,2.63
2018-12-07T13:02:09.604Z,2.40
2018-12-07T13:04:43.771Z,3.83
2018-12-07T13:07:17.692Z,3.10
2018-12-07T13:09:51.690Z,2.30
2018-12-07T13:12:25.632Z,2.27
2018-12-07T13:15:14.154Z,5.00
2018-12-07T13:17:48.669Z,2.70
2018-12-07T13:20:22.780Z,4.00
2018-12-07T13:23:01.909Z,2.73
2018-12-07T13:25:35.920Z,3.67
2018-12-07T13:28:09.829Z,2.47
2018-12-07T13:30:43.675Z,5.20
2018-12-07T13:33:17.745Z,2.73
2018-12-07T13:35:51.652Z,3.07
2018-12-07T13:38:25.559Z,3.50
2018-12-07T13:40:59.543Z,5.57
2018-12-07T13:43:33.758Z,4.13
2018-12-07T13:46:08.065Z,3.70
2018-12-07T13:48:42.469Z,2.90
2018-12-07T13:51:16.813Z,4.40
2018-12-07T13:53:51.003Z,4.70
2018-12-07T13:56:25.456Z,4.53
2018-12-07T13:58:59.838Z,2.30
2018-12-07T14:01:34.293Z,5.23
2018-12-07T14:04:08.317Z,4.33
2018-12-07T14:06:42.483Z,4.33
2018-12-07T14:09:16.590Z,3.23
2018-12-07T14:11:51.059Z,3.03
2018-12-07T14:14:25.334Z,4.03
2018-12-07T14:16:59.559Z,4.27
2018-12-07T14:19:33.794Z,3.90
2018-12-07T14:22:08.053Z,3.43
2018-12-07T14:24:42.540Z,2.40
2018-12-07T14:27:21.705Z,3.17
2018-12-07T14:29:55.900Z,3.43
2018-12-07T14:32:31.979Z,1.57
2018-12-07T14:35:06.485Z,2.27
2018-12-07T14:37:40.576Z,2.73
2018-12-07T14:40:14.594Z,2.50
2018-12-07T14:42:48.338Z,1.70
2018-12-07T14:45:22.763Z,2.17
2018-12-07T14:48:01.855Z,3.03
2018-12-07T14:50:36.165Z,1.80
2018-12-07T14:53:10.409Z,2.20
2018-12-07T14:55:44.599Z,1.30
2018-12-07T14:58:20.045Z,1.20
2018-12-07T15:00:55.172Z,2.50
2018-12-07T15:03:29.216Z,1.93
2018-12-07T15:06:03.526Z,1.37
2018-12-07T15:08:37.899Z,1.20
2018-12-07T15:11:12.151Z,1.23
2018-12-07T15:13:46.312Z,1.87
2018-12-07T15:16:20.742Z,1.60
2018-12-07T15:18:55.186Z,1.73
2018-12-07T15:21:31.248Z,1.20
2018-12-07T15:24:05.414Z,2.63
2018-12-07T15:26:39.569Z,2.07
2018-12-07T15:29:13.327Z,1.50
2018-12-07T15:31:47.527Z,2.77
2018-12-07T15:34:21.784Z,1.40
2018-12-07T15:36:55.988Z,1.70
2018-12-07T15:39:31.374Z,2.90
2018-12-07T15:42:05.215Z,1.90
2018-12-07T15:44:39.294Z,2.83
2018-12-07T15:47:13.392Z,2.13
2018-12-07T15:49:47.570Z,2.60
2018-12-07T15:52:21.814Z,1.93
2018-12-07T15:54:56.164Z,2.70
2018-12-07T15:57:36.391Z,1.30
2018-12-07T16:00:12.483Z,1.23
2018-12-07T16:02:47.728Z,1.57
2018-12-07T16:05:22.318Z,2.53
2018-12-07T16:07:56.576Z,0.97
2018-12-07T16:10:30.898Z,1.90
2018-12-07T16:13:05.070Z,0.93
2018-12-07T16:15:39.321Z,1.20
2018-12-07T16:18:13.556Z,0.97
2018-12-07T16:20:47.701Z,0.80
2018-12-07T16:23:21.645Z,0.97
2018-12-07T16:25:55.925Z,0.90
2018-12-07T16:28:30.136Z,0.97
2018-12-07T16:31:04.265Z,1.30
2018-12-07T16:33:38.365Z,0.70
2018-12-07T16:36:12.292Z,1.10
2018-12-07T16:38:49.560Z,0.90
2018-12-07T16:41:24.068Z,1.13
2018-12-07T16:43:58.335Z,1.10
2018-12-07T16:46:32.201Z,0.77
2018-12-07T16:49:06.661Z,0.90
2018-12-07T16:51:41.056Z,1.60
2018-12-07T16:54:15.403Z,0.73
2018-12-07T16:56:49.448Z,1.73
2018-12-07T16:59:23.378Z,0.73
2018-12-07T17:01:58.604Z,1.10
2018-12-07T17:04:32.823Z,0.97
2018-12-07T17:07:07.138Z,1.70
2018-12-07T17:09:41.463Z,0.87
2018-12-07T17:12:15.475Z,0.80
2018-12-07T17:14:49.507Z,0.90
2018-12-07T17:17:24.318Z,1.40
2018-12-07T17:19:58.904Z,0.90
2018-12-07T17:22:33.000Z,2.40
2018-12-07T17:25:07.199Z,1.10
2018-12-07T17:27:41.694Z,1.10
2018-12-07T17:30:16.319Z,0.90
2018-12-07T17:32:51.149Z,2.83
2018-12-07T17:35:25.062Z,1.13
2018-12-07T17:37:59.279Z,0.80
2018-12-07T17:40:33.472Z,1.33
2018-12-07T17:43:09.836Z,2.00
2018-12-07T17:45:43.752Z,1.23
2018-12-07T17:48:17.933Z,0.80
2018-12-07T17:50:52.758Z,0.80
2018-12-07T17:53:27.060Z,0.70
2018-12-07T17:56:01.267Z,0.80
2018-12-07T17:58:35.679Z,0.80
2018-12-07T18:01:10.060Z,0.87
2018-12-07T18:03:43.838Z,1.10
2018-12-07T18:06:17.976Z,0.77
2018-12-07T18:08:51.915Z,1.40
2018-12-07T18:11:25.979Z,1.80
2018-12-07T18:13:59.975Z,1.00
2018-12-07T18:16:34.117Z,0.70
2018-12-07T18:19:09.765Z,1.60
2018-12-07T18:21:44.289Z,1.47
2018-12-07T18:24:20.248Z,1.43
2018-12-07T18:26:54.484Z,0.83
2018-12-07T18:29:28.510Z,1.00
2018-12-07T18:32:02.831Z,0.70
2018-12-07T18:34:39.378Z,2.13
2018-12-07T18:37:13.404Z,1.63
2018-12-07T18:39:47.584Z,0.70
2018-12-07T18:42:21.793Z,1.00
2018-12-07T18:44:55.708Z,0.73
2018-12-07T18:47:29.890Z,3.43
2018-12-07T18:50:05.357Z,1.30
2018-12-07T18:52:39.556Z,1.20
2018-12-07T18:55:13.612Z,1.40
2018-12-07T18:57:47.993Z,1.53
2018-12-07T19:00:22.705Z,0.80
2018-12-07T19:02:56.994Z,3.37
2018-12-07T19:05:31.640Z,2.73
2018-12-07T19:08:05.973Z,0.83
2018-12-07T19:10:40.002Z,0.90
2018-12-07T19:13:14.108Z,1.80
2018-12-07T19:15:49.444Z,1.30
2018-12-07T19:18:23.641Z,0.93
2018-12-07T19:20:57.690Z,1.93
2018-12-07T19:23:33.199Z,1.30
2018-12-07T19:26:07.521Z,1.03
2018-12-07T19:28:41.649Z,1.67
2018-12-07T19:31:16.014Z,3.10
2018-12-07T19:33:50.340Z,1.27
2018-12-07T19:36:25.640Z,1.07
2018-12-07T19:38:59.883Z,1.30
2018-12-07T19:41:34.013Z,2.00
2018-12-07T19:44:09.045Z,0.97
2018-12-07T19:46:43.158Z,0.70
2018-12-07T19:49:19.126Z,0.93
2018-12-07T19:51:53.485Z,0.93
2018-12-07T19:54:27.668Z,0.97
2018-12-07T19:57:01.958Z,1.90
2018-12-07T19:59:36.119Z,1.60
2018-12-07T20:02:10.535Z,1.53
2018-12-07T20:04:44.451Z,1.87
2018-12-07T20:07:18.662Z,0.93
2018-12-07T20:09:53.021Z,1.07
2018-12-07T20:12:27.351Z,1.20
2018-12-07T20:15:01.652Z,1.30
2018-12-07T20:17:35.925Z,1.23
2018-12-07T20:20:09.957Z,0.90
2018-12-07T20:22:43.874Z,0.83
2018-12-07T20:25:17.853Z,1.47
2018-12-07T20:27:51.946Z,0.90
2018-12-07T20:30:26.452Z,0.60
2018-12-07T20:33:00.700Z,1.20
2018-12-07T20:35:35.093Z,1.00
2018-12-07T20:38:09.232Z,0.70
2018-12-07T20:40:44.461Z,0.80
2018-12-07T20:43:21.179Z,0.83
2018-12-07T20:45:55.512Z,0.50
2018-12-07T20:48:30.059Z,1.20
2018-12-07T20:51:04.344Z,1.03
2018-12-07T20:53:38.616Z,0.60
2018-12-07T20:56:12.592Z,0.80
2018-12-07T20:58:46.605Z,0.70
2018-12-07T21:01:20.864Z,1.43
2018-12-07T21:04:22.050Z,1.47
2018-12-07T21:17:04.607Z,0.83
2018-12-07T21:19:43.524Z,0.83
2018-12-07T21:22:18.889Z,0.80
2018-12-07T21:25:02.766Z,1.13
2018-12-07T21:27:37.324Z,1.13
2018-12-07T21:33:19.881Z,2.00
2018-12-07T21:36:06.225Z,1.30
2018-12-07T21:38:40.518Z,0.80
2018-12-07T21:41:14.865Z,0.70
2018-12-07T21:43:48.986Z,0.80
2018-12-07T21:46:22.980Z,1.67
2018-12-07T21:48:57.226Z,1.43
2018-12-07T21:51:43.453Z,0.83
2018-12-07T21:54:17.484Z,1.50
2018-12-07T21:56:51.602Z,1.63
2018-12-07T21:59:25.821Z,1.23
2018-12-07T22:01:59.946Z,4.13
2018-12-07T22:04:33.911Z,1.67
2018-12-07T22:07:08.501Z,1.80
2018-12-07T22:09:42.749Z,0.53
2018-12-07T22:12:17.105Z,2.33
2018-12-07T22:14:51.223Z,1.00
2018-12-07T22:17:25.228Z,0.80
2018-12-07T22:19:59.509Z,0.73
2018-12-07T22:22:33.729Z,2.63
2018-12-07T22:25:07.822Z,4.10
2018-12-07T22:27:41.878Z,1.83
2018-12-07T22:30:16.175Z,3.20
2018-12-07T22:32:50.315Z,0.90
2018-12-07T22:35:24.229Z,2.77
2018-12-07T22:37:58.713Z,4.03
2018-12-07T22:40:33.843Z,3.03
2018-12-07T22:43:08.652Z,2.30
2018-12-07T22:45:43.129Z,1.40
2018-12-07T22:48:17.468Z,3.13
2018-12-07T22:50:51.670Z,4.93
2018-12-07T22:53:25.624Z,3.47
2018-12-07T22:55:59.887Z,3.53
2018-12-07T22:58:33.896Z,3.70
2018-12-07T23:01:09.216Z,3.60
2018-12-07T23:03:43.148Z,4.43
2018-12-07T23:06:17.564Z,3.17
2018-12-07T23:08:51.675Z,2.70
2018-12-07T23:11:25.732Z,2.50
2018-12-07T23:13:59.807Z,2.80
2018-12-07T23:16:33.705Z,2.33
2018-12-07T23:19:08.535Z,1.90
2018-12-07T23:21:42.646Z,2.27
2018-12-07T23:24:16.353Z,4.33
2018-12-07T23:26:50.229Z,3.20
2018-12-07T23:29:23.980Z,4.40
2018-12-07T23:31:57.972Z,2.90
2018-12-07T23:34:31.744Z,3.07
2018-12-07T23:37:05.783Z,2.97
2018-12-07T23:39:39.505Z,1.93
2018-12-07T23:42:13.539Z,3.33
2018-12-07T23:44:47.609Z,2.57
2018-12-07T23:47:21.617Z,4.27
2018-12-07T23:49:55.524Z,3.10
2018-12-07T23:52:29.526Z,2.37
2018-12-07T23:55:04.428Z,4.57
2018-12-07T23:57:38.576Z,3.17
